Data for 03/25/2016

Time Sea-Level Adjusted Pressure Absolute Pressure Temperature Relative Humidity Dew Point   
(mb) (inHg) (mb) (inHg) (C) (F) (%) (C) (F)
00:05 1014 29.94 843 24.89 -0.8 30.6 62 -7.2 19
00:10 1014 29.94 843 24.89 -0.8 30.5 62 -7.1 19.2
00:15 1014 29.94 843 24.89 -0.8 30.6 60 -7.6 18.4
00:20 1014 29.94 843 24.89 -0.6 30.9 60 -7.5 18.6
00:25 1014 29.94 843 24.89 -0.6 30.9 61 -7.3 18.9
00:30 1014 29.94 843 24.89 -0.6 30.9 64 -6.6 20.1
00:35 1014 29.94 843 24.89 -0.8 30.6 70 -5.6 21.9
00:40 1014 29.94 843 24.89 -1 30.3 66 -6.4 20.4
00:45 1014 29.94 843 24.89 -1.1 30 65 -6.8 19.7
00:50 1014 29.94 843 24.89 -1 30.1 63 -7.1 19.2
00:55 1014 29.94 843 24.89 -0.9 30.4 64 -6.8 19.8
01:00 1014 29.94 843 24.89 -0.8 30.5 64 -6.8 19.8
01:05 1014 29.94 843 24.89 -0.8 30.5 63 -6.9 19.6
01:10 1014 29.94 843 24.89 -0.8 30.6 64 -6.7 20
01:15 1014 29.94 843 24.89 -0.8 30.6 65 -6.6 20.1
01:20 1014 29.94 843 24.89 -0.8 30.6 65 -6.6 20.1
01:25 1014 29.94 843 24.89 -0.7 30.7 63 -6.9 19.6
01:30 1014 29.94 843 24.89 -0.6 30.9 62 -7.1 19.2
01:35 1014 29.94 843 24.89 -0.6 31 61 -7.2 19.1
01:40 1014 29.94 843 24.89 -0.5 31 62 -7 19.3
01:45 1014 29.94 843 24.89 -0.5 31.1 61 -7.1 19.3
01:50 1014 29.94 843 24.89 -0.4 31.2 61 -7.1 19.2
01:55 1014 29.94 843 24.89 -0.4 31.3 61 -7 19.4
02:00 1014 29.94 843 24.89 -0.4 31.3 60 -7.1 19.1
02:05 1014 29.94 843 24.89 -0.4 31.3 61 -7 19.4
02:10 1014 29.94 843 24.89 -0.4 31.2 61 -7 19.4
02:15 1014 29.94 843 24.89 -0.5 31.1 62 -6.9 19.6
02:20 1014 29.94 843 24.89 -0.6 31 64 -6.5 20.2
02:25 1014 29.94 843 24.89 -0.7 30.7 66 -6.3 20.6
02:30 1014 29.94 843 24.89 -1 30.2 66 -6.5 20.2
02:35 1014 29.94 843 24.89 -1.1 30.1 65 -6.8 19.7
02:40 1014 29.94 843 24.89 -1 30.2 65 -6.8 19.7
02:45 1014 29.94 843 24.89 -0.9 30.4 65 -6.7 19.9
02:50 1014 29.94 843 24.89 -0.9 30.4 65 -6.8 19.8
02:55 1014 29.94 843 24.89 -0.9 30.4 65 -6.8 19.8
03:00 1014 29.94 843 24.89 -0.9 30.4 67 -6.4 20.5
03:05 1014 29.94 843 24.89 -0.9 30.4 65 -6.6 20.1
03:10 1014 29.94 843 24.89 -0.9 30.5 65 -6.7 19.9
03:15 1014 29.94 843 24.89 -0.8 30.5 67 -6.1 20.9
03:20 1014 29.94 843 24.89 -1 30.3 68 -6.2 20.8
03:25 1014 29.94 843 24.89 -0.9 30.3 67 -6.3 20.7
03:30 1014 29.94 843 24.89 -0.9 30.4 65 -6.6 20.1
03:35 1014 29.94 843 24.89 -0.8 30.6 63 -7 19.4
03:40 1014 29.94 843 24.89 -0.6 30.9 64 -6.5 20.2
03:45 1014 29.94 843 24.89 -0.7 30.8 65 -6.4 20.5
03:50 1014 29.94 843 24.89 -0.9 30.4 68 -6 21.2
03:55 1014 29.94 843 24.89 -1 30.1 69 -6 21.2
04:00 1014 29.94 843 24.89 -1.1 29.9 70 -5.9 21.4
04:05 1014 29.94 843 24.89 -1.3 29.8 71 -5.9 21.4
04:10 1014 29.94 843 24.89 -1.3 29.7 72 -5.6 21.9
04:15 1014 29.94 843 24.89 -1.3 29.6 73 -5.5 22.1
04:20 1014 29.94 843 24.89 -1.5 29.4 75 -5.3 22.4
04:25 1014 29.94 843 24.89 -1.6 29.2 77 -5.1 22.8
04:30 1014 29.94 843 24.89 -1.7 28.9 81 -4.6 23.6
04:35 1014 29.94 843 24.89 -1.9 28.5 82 -4.6 23.8
04:40 1014 29.94 843 24.89 -2.1 28.3 84 -4.4 24.1
04:45 1014 29.94 843 24.89 -2.1 28.2 85 -4.3 24.3
04:50 1014 29.94 844 24.92 -2.2 28 84 -4.5 23.9
04:55 1014 29.94 844 24.92 -2.1 28.2 84 -4.5 23.9
05:00 1014 29.94 844 24.92 -2.1 28.3 84 -4.4 24.1
05:05 1014 29.94 844 24.92 -2.1 28.2 84 -4.5 23.9
05:10 1014 29.94 844 24.92 -2.2 28.1 85 -4.4 24.1
05:15 1014 29.94 844 24.92 -2.2 28.1 85 -4.3 24.2
05:20 1014 29.94 844 24.92 -2.2 28.1 85 -4.4 24
05:25 1014 29.94 844 24.92 -2.3 27.9 85 -4.5 23.9
05:30 1014 29.94 843 24.89 -2.2 28 83 -4.7 23.5
05:35 1014 29.94 843 24.89 -2.2 28.1 82 -4.9 23.2
05:40 1014 29.94 843 24.89 -2.1 28.2 80 -5.1 22.8
05:45 1014 29.94 843 24.89 -2 28.4 78 -5.3 22.5
05:50 1014 29.94 843 24.89 -1.9 28.6 76 -5.6 21.9
05:55 1014 29.94 843 24.89 -1.8 28.7 74 -5.9 21.5
06:00 1014 29.94 843 24.89 -1.8 28.8 74 -5.9 21.4
06:05 1014 29.94 843 24.89 -1.8 28.8 73 -5.9 21.4
06:10 1014 29.94 843 24.89 -1.7 28.9 73 -5.9 21.4
06:15 1014 29.94 843 24.89 -1.7 29 73 -5.9 21.4
06:20 1014 29.94 843 24.89 -1.7 29 72 -6.1 21.1
06:25 1014 29.94 844 24.92 -1.6 29.1 72 -5.9 21.3
06:30 1014 29.94 844 24.92 -1.6 29.2 71 -6.1 21.1
06:35 1014 29.94 844 24.92 -1.5 29.2 70 -6.2 20.8
06:40 1014 29.94 844 24.92 -1.5 29.3 71 -6.2 20.9
06:45 1014 29.94 844 24.92 -1.5 29.4 71 -6.1 21
06:50 1014 29.94 844 24.92 -1.5 29.4 71 -6 21.1
06:55 1014 29.94 844 24.92 -1.4 29.5 71 -6 21.1
07:00 1015 29.97 844 24.92 -1.3 29.6 71 -5.9 21.3
07:05 1015 29.97 844 24.92 -1.2 29.8 71 -5.9 21.5
07:10 1015 29.97 844 24.92 -1.2 29.8 71 -5.9 21.4
07:15 1015 29.97 844 24.92 -1.3 29.7 72 -5.6 21.8
07:20 1015 29.97 844 24.92 -1.2 29.8 73 -5.5 22
07:25 1015 29.97 844 24.92 -1.2 29.8 73 -5.4 22.2
07:30 1015 29.97 844 24.92 -1.1 30 73 -5.4 22.3
07:35 1015 29.97 844 24.92 -1 30.3 73 -5.2 22.6
07:40 1015 29.97 844 24.92 -0.8 30.5 73 -5.1 22.8
07:45 1015 29.97 844 24.92 -0.8 30.6 71 -5.3 22.4
07:50 1015 29.97 844 24.92 -0.7 30.7 71 -5.3 22.5
07:55 1015 29.97 844 24.92 -0.7 30.7 71 -5.4 22.3
08:00 1015 29.97 844 24.92 -0.6 30.9 71 -5.2 22.6
08:05 1015 29.97 844 24.92 -0.5 31.2 71 -5.1 22.8
08:10 1015 29.97 844 24.92 -0.4 31.2 72 -4.9 23.2
08:15 1015 29.97 844 24.92 -0.5 31.2 73 -4.7 23.5
08:20 1015 29.97 844 24.92 -0.4 31.2 71 -5 22.9
08:25 1015 29.97 844 24.92 -0.5 31 71 -5.1 22.8
08:30 1015 29.97 844 24.92 -0.5 31.2 70 -5.2 22.6
08:35 1015 29.97 844 24.92 -0.4 31.2 69 -5.4 22.3
08:40 1015 29.97 844 24.92 -0.3 31.5 68 -5.4 22.2
08:45 1015 29.97 844 24.92 0.2 32.4 64 -5.9 21.4
08:50 1015 29.97 844 24.92 0.2 32.3 64 -5.7 21.7
08:55 1015 29.97 844 24.92 0.3 32.5 64 -5.7 21.7
09:00 1015 29.97 844 24.92 0.3 32.6 64 -5.8 21.6
09:05 1015 29.97 844 24.92 -0.1 31.9 65 -5.8 21.5
09:10 1015 29.97 844 24.92 0 32 64 -5.9 21.4
09:15 1015 29.97 844 24.92 0.6 33 62 -5.9 21.4
09:20 1015 29.97 844 24.92 0.9 33.6 61 -5.8 21.6
09:25 1015 29.97 844 24.92 1.2 34.2 60 -5.8 21.6
09:30 1015 29.97 844 24.92 1.4 34.6 61 -5.3 22.4
09:35 1015 29.97 844 24.92 1.5 34.7 64 -4.5 23.9
09:40 1015 29.97 844 24.92 1.2 34.2 64 -4.9 23.3
09:45 1015 29.97 844 24.92 2.1 35.8 60 -4.7 23.5
09:50 1015 29.97 845 24.95 2 35.6 63 -4.3 24.3
09:55 1015 29.97 845 24.95 1.8 35.2 59 -5.3 22.4
10:00 1015 29.97 845 24.95 2.5 36.6 57 -5.2 22.6
10:05 1015 29.97 845 24.95 3.1 37.7 54 -5.2 22.7
10:10 1015 29.97 845 24.95 3.3 37.9 53 -5.4 22.3
10:15 1015 29.97 845 24.95 3.3 38 51 -5.7 21.7
10:20 1015 29.97 845 24.95 3.3 37.9 52 -5.7 21.7
10:25 1015 29.97 845 24.95 3.5 38.3 52 -5.4 22.4
10:30 1015 29.97 845 24.95 3.3 38 51 -5.9 21.4
10:35 1015 29.97 845 24.95 3.8 38.9 46 -6.8 19.8
10:40 1015 29.97 845 24.95 3.3 38 50 -6.1 21
10:45 1015 29.97 845 24.95 3.8 38.8 50 -5.7 21.7
10:50 1015 29.97 845 24.95 4.2 39.5 48 -5.8 21.5
10:55 1015 29.97 845 24.95 4 39.3 49 -5.8 21.5
11:00 1015 29.97 845 24.95 3.6 38.5 52 -5.2 22.6
11:05 1015 29.97 845 24.95 4.1 39.3 49 -5.7 21.7
11:10 1015 29.97 845 24.95 3.4 38.1 54 -5.1 22.9
11:15 1015 29.97 845 24.95 3.6 38.5 53 -5.1 22.8
11:20 1015 29.97 845 24.95 3.3 37.9 56 -4.8 23.4
11:25 1015 29.97 845 24.95 3.1 37.6 58 -4.4 24
11:30 1015 29.97 845 24.95 3 37.4 55 -5.3 22.5
11:35 1015 29.97 845 24.95 3.8 38.9 54 -4.7 23.5
11:40 1015 29.97 844 24.92 3.7 38.7 56 -4.3 24.3
11:45 1015 29.97 844 24.92 2.7 36.9 57 -5 23
11:50 1015 29.97 844 24.92 3.5 38.2 54 -4.9 23.2
11:55 1015 29.97 844 24.92 2.7 36.9 54 -5.6 22
12:00 1015 29.97 844 24.92 2.5 36.5 54 -5.9 21.4
12:05 1015 29.97 844 24.92 2.3 36.2 56 -5.5 22.1
12:10 1015 29.97 844 24.92 2 35.7 57 -5.7 21.8
12:15 1015 29.97 844 24.92 2.2 35.9 61 -4.5 23.9
12:20 1015 29.97 844 24.92 2.1 35.8 59 -5.1 22.9
12:25 1015 29.97 845 24.95 1.8 35.2 65 -4.2 24.4
12:30 1015 29.97 845 24.95 1.5 34.6 74 -2.8 27
12:35 1016 30 845 24.95 0.4 32.6 81 -2.5 27.6
12:40 1016 30 845 24.95 -0.6 30.9 84 -2.9 26.7
12:45 1016 30 845 24.95 -1 30.2 82 -3.7 25.4
12:50 1016 30 845 24.95 -1 30.2 84 -3.3 26.1
12:55 1016 30 845 24.95 -1.1 30 83 -3.6 25.5
13:00 1015 29.97 845 24.95 -1 30.2 83 -3.5 25.8
13:05 1015 29.97 845 24.95 -0.8 30.5 84 -3.2 26.2
13:10 1015 29.97 845 24.95 -0.6 30.9 82 -3.3 26.1
13:15 1015 29.97 845 24.95 -0.3 31.5 80 -3.4 26
13:20 1015 29.97 845 24.95 -0.1 31.8 77 -3.7 25.4
13:25 1015 29.97 845 24.95 0.1 32.1 77 -3.6 25.6
13:30 1015 29.97 845 24.95 0.5 32.8 75 -3.5 25.6
13:35 1015 29.97 845 24.95 0.7 33.3 69 -4.3 24.3
13:40 1015 29.97 844 24.92 1 33.7 70 -4 24.9
13:45 1015 29.97 844 24.92 0.9 33.5 72 -3.7 25.3
13:50 1015 29.97 844 24.92 1 33.9 71 -3.6 25.6
13:55 1015 29.97 844 24.92 0.9 33.7 69 -4 24.8
14:00 1015 29.97 844 24.92 1.2 34.2 68 -4 24.7
14:05 1015 29.97 844 24.92 1.4 34.4 74 -2.8 26.9
14:10 1015 29.97 844 24.92 1.3 34.4 72 -3.2 26.2
14:15 1015 29.97 844 24.92 1.6 34.9 72 -2.9 26.8
14:20 1015 29.97 844 24.92 1.5 34.7 72 -3.1 26.5
14:25 1015 29.97 844 24.92 1.4 34.5 73 -3 26.5
14:30 1015 29.97 844 24.92 2.1 35.7 67 -3.4 25.8
14:35 1015 29.97 844 24.92 2.3 36.2 70 -2.6 27.3
14:40 1015 29.97 844 24.92 2.7 36.8 64 -3.4 25.9
14:45 1015 29.97 844 24.92 3 37.3 66 -2.8 27
14:50 1015 29.97 845 24.95 2.7 36.9 67 -2.7 27.2
14:55 1015 29.97 845 24.95 2 35.6 70 -2.9 26.7
15:00 1015 29.97 845 24.95 1.5 34.7 72 -3 26.6
15:05 1015 29.97 845 24.95 1.3 34.3 73 -3.1 26.4
15:10 1015 29.97 845 24.95 1.4 34.4 73 -3 26.6
15:15 1016 30 845 24.95 1.6 34.8 71 -3.1 26.4
15:20 1016 30 845 24.95 1.5 34.7 70 -3.3 26
15:25 1016 30 845 24.95 1.3 34.4 73 -3 26.6
15:30 1016 30 845 24.95 1.1 34 76 -2.7 27.2
15:35 1016 30 845 24.95 0.7 33.2 80 -2.3 27.8
15:40 1016 30 845 24.95 0.8 33.4 78 -2.7 27.2
15:45 1016 30 845 24.95 0.8 33.5 79 -2.4 27.7
15:50 1016 30 845 24.95 1.2 34.2 75 -2.7 27.1
15:55 1016 30 845 24.95 1.3 34.3 74 -2.8 27
16:00 1016 30 845 24.95 0.7 33.3 77 -2.9 26.8
16:05 1016 30 845 24.95 1 33.8 74 -3.1 26.3
16:10 1016 30 845 24.95 1.5 34.7 73 -2.8 26.9
16:15 1016 30 845 24.95 1.8 35.3 69 -3.2 26.3
16:20 1016 30 845 24.95 2.2 35.9 65 -3.7 25.3
16:25 1016 30 845 24.95 1.9 35.5 66 -3.7 25.3
16:30 1016 30 845 24.95 1.9 35.4 66 -3.8 25.1
16:35 1016 30 845 24.95 1.9 35.4 64 -4.2 24.5
16:40 1016 30 845 24.95 1.9 35.4 69 -3.2 26.3
16:45 1016 30 845 24.95 1.9 35.5 67 -3.6 25.6
16:50 1016 30 845 24.95 1.9 35.3 67 -3.6 25.5
16:55 1016 30 845 24.95 1.8 35.3 66 -3.9 24.9
17:00 1016 30 845 24.95 1.7 35 67 -3.9 25
17:05 1016 30 845 24.95 1.2 34.1 67 -4.3 24.3
17:10 1016 30 845 24.95 1.2 34.2 65 -4.7 23.6
17:15 1016 30 845 24.95 1.4 34.5 67 -4 24.7
17:20 1016 30 845 24.95 1.4 34.5 65 -4.4 24.2
17:25 1016 30 845 24.95 1.3 34.3 64 -4.8 23.3
17:30 1016 30 845 24.95 1.4 34.4 64 -4.7 23.5
17:35 1016 30 845 24.95 1.3 34.3 65 -4.5 23.8
17:40 1016 30 845 24.95 1.2 34.1 66 -4.5 24
17:45 1016 30 845 24.95 1.1 34 64 -4.9 23.3
17:50 1016 30 845 24.95 1.1 34 64 -4.9 23.2
17:55 1016 30 845 24.95 1.2 34.2 63 -5.1 22.8
18:00 1016 30 846 24.98 1.3 34.4 64 -4.9 23.3
18:05 1016 30 846 24.98 1.4 34.5 62 -5.1 22.8
18:10 1016 30 846 24.98 1.4 34.4 63 -4.9 23.2
18:15 1016 30 846 24.98 1.2 34.2 64 -4.8 23.4
18:20 1017 30.03 846 24.98 1.1 34 65 -4.8 23.3
18:25 1017 30.03 846 24.98 1.1 33.9 65 -4.9 23.2
18:30 1017 30.03 846 24.98 0.9 33.7 64 -5.2 22.7
18:35 1017 30.03 846 24.98 0.9 33.7 64 -5.1 22.8
18:40 1017 30.03 846 24.98 0.9 33.6 63 -5.5 22.2
18:45 1017 30.03 846 24.98 0.8 33.4 63 -5.5 22.1
18:50 1017 30.03 846 24.98 0.8 33.4 64 -5.2 22.6
18:55 1017 30.03 846 24.98 0.7 33.3 64 -5.4 22.3
19:00 1017 30.03 846 24.98 0.7 33.3 64 -5.2 22.6
19:05 1017 30.03 846 24.98 0.7 33.3 64 -5.3 22.4
19:10 1017 30.03 846 24.98 0.8 33.4 63 -5.6 22
19:15 1017 30.03 846 24.98 0.8 33.4 63 -5.5 22.1
19:20 1017 30.03 846 24.98 0.8 33.4 63 -5.4 22.2
19:25 1017 30.03 846 24.98 0.8 33.4 66 -4.9 23.1
19:30 1017 30.03 846 24.98 0.4 32.7 71 -4.2 24.5
19:35 1017 30.03 847 25.01 -0.1 31.7 73 -4.5 23.9
19:40 1017 30.03 847 25.01 -0.2 31.6 76 -3.9 24.9
19:45 1018 30.06 847 25.01 -0.4 31.3 79 -3.6 25.5
19:50 1018 30.06 847 25.01 -0.5 31 80 -3.6 25.5
19:55 1018 30.06 847 25.01 -0.6 30.8 81 -3.6 25.6
20:00 1018 30.06 847 25.01 -0.7 30.7 81 -3.6 25.6
20:05 1018 30.06 847 25.01 -0.8 30.5 82 -3.5 25.6
20:10 1018 30.06 847 25.01 -0.9 30.3 82 -3.6 25.6
20:15 1018 30.06 847 25.01 -1.1 30.1 84 -3.5 25.7
20:20 1018 30.06 847 25.01 -1.1 30 85 -3.4 25.8
20:25 1018 30.06 847 25.01 -1.1 29.9 85 -3.4 25.9
20:30 1018 30.06 847 25.01 -1.1 30 84 -3.4 25.8
20:35 1018 30.06 847 25.01 -1.1 30 84 -3.4 25.8
20:40 1018 30.06 847 25.01 -1.1 30 84 -3.4 25.8
20:45 1018 30.06 847 25.01 -1.2 29.9 85 -3.4 25.9
20:50 1018 30.06 847 25.01 -1.2 29.8 85 -3.5 25.7
20:55 1018 30.06 847 25.01 -1.1 29.9 83 -3.7 25.3
21:00 1018 30.06 847 25.01 -1.1 30 83 -3.7 25.4
21:05 1018 30.06 847 25.01 -1.1 30 82 -3.8 25.2
21:10 1018 30.06 847 25.01 -1.1 30 80 -4.1 24.6
21:15 1018 30.06 848 25.04 -1 30.1 79 -4.2 24.5
21:20 1018 30.06 848 25.04 -1 30.1 79 -4.3 24.3
21:25 1018 30.06 847 25.01 -1 30.3 78 -4.3 24.2
21:30 1018 30.06 847 25.01 -0.9 30.4 78 -4.2 24.4
21:35 1018 30.06 848 25.04 -0.9 30.3 79 -4.1 24.6
21:40 1018 30.06 848 25.04 -0.9 30.3 79 -4.1 24.6
21:45 1018 30.06 848 25.04 -0.9 30.4 79 -4.1 24.6
21:50 1018 30.06 848 25.04 -0.9 30.4 80 -4 24.9
21:55 1018 30.06 848 25.04 -0.9 30.4 80 -4 24.8
22:00 1018 30.06 848 25.04 -0.9 30.3 80 -4 24.9
22:05 1018 30.06 848 25.04 -1 30.2 81 -3.9 25
22:10 1018 30.06 848 25.04 -1 30.3 80 -3.9 24.9
22:15 1018 30.06 848 25.04 -0.9 30.3 80 -3.9 25
22:20 1018 30.06 848 25.04 -0.9 30.3 79 -4.1 24.6
22:25 1018 30.06 848 25.04 -0.9 30.3 79 -4.1 24.6
22:30 1018 30.06 848 25.04 -0.9 30.4 79 -4.2 24.5
22:35 1018 30.06 848 25.04 -0.9 30.4 79 -4 24.7
22:40 1019 30.09 848 25.04 -0.8 30.5 82 -3.5 25.8
22:45 1019 30.09 848 25.04 -1 30.2 88 -2.7 27.2
22:50 1019 30.09 848 25.04 -1.3 29.7 89 -2.8 26.9
22:55 1019 30.09 848 25.04 -1.3 29.6 90 -2.7 27.1
23:00 1019 30.09 848 25.04 -1.2 29.8 89 -2.7 27.1
23:05 1019 30.09 848 25.04 -1.2 29.8 90 -2.7 27.1
23:10 1019 30.09 848 25.04 -1.2 29.9 89 -2.7 27.1
23:15 1019 30.09 848 25.04 -1.2 29.9 89 -2.8 27
23:20 1019 30.09 848 25.04 -1.2 29.9 88 -2.9 26.8
23:25 1019 30.09 848 25.04 -1.2 29.9 89 -2.8 26.9
23:30 1019 30.09 848 25.04 -1.2 29.8 88 -2.9 26.7
23:35 1019 30.09 848 25.04 -1.2 29.9 88 -2.9 26.8
23:40 1019 30.09 848 25.04 -1.1 29.9 88 -2.8 26.9
23:45 1019 30.09 848 25.04 -1.1 29.9 88 -2.9 26.8
23:50 1019 30.09 848 25.04 -1.2 29.8 88 -2.9 26.8
23:55 1019 30.09 848 25.04 -1.2 29.8 88 -3 26.7
24:00 1019 30.09 848 25.04 -1.2 29.9 88 -2.9 26.7